Moses Lake, WA

7:42 PM PDT on September 04, 2015 (GMT -0700)
HADS | | Change Station
CLOSE
Current Station
Personal Weather Station
Location: Moses Lake, WA
Elevation: 1068 ft
Nearby Weather Stations

Elev 1068 ft 47.19 °N, 119.26 °W | Updated 57 minutes ago

Clear
Clear
3.0 °F
Feels Like 3.0 °F
N
0.0
Wind Variable Wind from North
Gusts 0.0 mph

Today
High -- | Low -- °F
--% Chance of Precip.
Yesterday
High -- | Low -- °F
Precip. -- in
6:19 AM 7:31 PM
Waning Gibbous, 53% visible
Pressure 29.83 in
Visibility 10.0 miles
Clouds Clear
Dew Point Not available.
Humidity Not available.
Rainfall in
Snow Depth Not available.
UV 0 out of 12
Pollen 3.90 out of 12
Air Quality Not available.
Flu Activity Not available.
METAR KMWH 050152Z 27010KT 10SM CLR 20/01 A2982 RMK AO2 SLP100 T02000011
Pressure 29.83 in
Visibility 10.0 miles
Clouds Clear
Dew Point Not available.
Humidity Not available.
Rainfall in
Snow Depth Not available.
UV 0 out of 12
Pollen 3.90 out of 12
Air Quality Not available.
Flu Activity Not available.
METAR KMWH 050152Z 27010KT 10SM CLR 20/01 A2982 RMK AO2 SLP100 T02000011

10-Day Weather Forecast

×

Almanac

Astronomy

Sep. 04, 2015 Rise Set
Actual Time
Civil Twilight
Nautical Twilight
Astronomical Twilight
Moon
Length of Visible Light
Length of Day
Tomorrow will be .
, % of the Moon is Illuminated

Today's Extremes

State Highs State Lows

Community

WunderPhotos

Upload Photos

1,852,392 photos uploaded!

WunderBlogs® & News

Nearby

Air Quality

  Air Quality AQ Index Pollutant
Not available.

Snow Depth

Station Depth Elevation

Earthquake Activity

City Distance Mag. Time & Date
Minimum magnitude displayed is 2.5.

Coastal Water Temperatures

Place Temperature

Stations

Nearby Weather Stations

Station Location Temp. Windchill Dew Point Humidity Wind Precip. Elev Updated Type